Terminal Aerodrome Forecast
Issued by NWS

Home | Current Version | Previous Version | Graphics & Text | Print | Product List | Glossary On
Versions: 1 2 3 4 5 6 7 8 9 10 11 12 13 14 15 16 17 18 19 20 21 22 23 24 25 26 27 28 29 30 31 32 33 34
000
FTUS43 KABR 280500
TAFPIR
TAF
KPIR 280535Z 2806/2906 14008KT 6SM -SHRA BR SCT011 BKN025 OVC100
     FM281000 VRB03KT 1SM BR OVC007
     FM281500 36006KT P6SM BKN010 OVC080
     FM290000 36007KT P6SM SCT100 BKN250=

USA.gov is the U.S. government's official web portal to all federal, state and local government web resources and services.